createdAt,value
2023-05-02T00:00:09.169Z,100699.38
2023-05-02T00:02:40.884Z,100696.72
2023-05-02T00:05:12.911Z,100700.44
2023-05-02T00:07:44.436Z,100691.03
2023-05-02T00:10:15.917Z,100697.09
2023-05-02T00:12:47.408Z,100696.44
2023-05-02T00:15:19.332Z,100693.66
2023-05-02T00:17:50.852Z,100688.22
2023-05-02T00:20:22.664Z,100686.50
2023-05-02T00:22:54.141Z,100689.56
2023-05-02T00:25:26.112Z,100690.06
2023-05-02T00:27:57.572Z,100689.16
2023-05-02T00:30:29.383Z,100692.53
2023-05-02T00:33:00.878Z,100694.53
2023-05-02T00:35:32.697Z,100686.16
2023-05-02T00:38:04.208Z,100691.66
2023-05-02T00:40:35.991Z,100689.22
2023-05-02T00:43:07.454Z,100692.94
2023-05-02T00:45:39.290Z,100696.66
2023-05-02T00:48:10.821Z,100690.50
2023-05-02T00:50:42.845Z,100688.75
2023-05-02T00:53:14.378Z,100686.06
2023-05-02T00:55:46.078Z,100697.72
2023-05-02T00:58:17.540Z,100694.81
2023-05-02T01:00:49.307Z,100700.41
2023-05-02T01:03:20.868Z,100688.31
2023-05-02T01:05:52.377Z,100698.19
2023-05-02T01:08:23.848Z,100701.13
2023-05-02T01:10:55.388Z,100694.59
2023-05-02T01:13:26.857Z,100703.91
2023-05-02T01:15:58.759Z,100698.78
2023-05-02T01:18:30.309Z,100698.78
2023-05-02T01:21:01.766Z,100701.78
2023-05-02T01:23:33.222Z,100702.50
2023-05-02T01:26:05.228Z,100702.59
2023-05-02T01:28:36.668Z,100704.84
2023-05-02T01:31:08.162Z,100701.94
2023-05-02T01:33:39.669Z,100712.41
2023-05-02T01:36:11.491Z,100717.19
2023-05-02T01:38:42.939Z,100708.34
2023-05-02T01:41:14.703Z,100718.91
2023-05-02T01:43:46.164Z,100725.06
2023-05-02T01:46:17.973Z,100729.59
2023-05-02T01:48:49.464Z,100726.34
2023-05-02T01:51:21.374Z,100727.63
2023-05-02T01:53:52.837Z,100723.56
2023-05-02T01:56:24.364Z,100726.94
2023-05-02T01:58:55.814Z,100722.66
2023-05-02T02:01:27.680Z,100724.50
2023-05-02T02:03:59.329Z,100727.19
2023-05-02T02:06:31.547Z,100727.06
2023-05-02T02:09:03.021Z,100726.75
2023-05-02T02:11:34.942Z,100728.25
2023-05-02T02:14:06.408Z,100730.81
2023-05-02T02:16:38.400Z,100736.94
2023-05-02T02:19:09.867Z,100737.41
2023-05-02T02:21:41.784Z,100737.78
2023-05-02T02:24:13.237Z,100742.19
2023-05-02T02:26:45.204Z,100739.38
2023-05-02T02:29:16.680Z,100749.34
2023-05-02T02:31:48.484Z,100754.22
2023-05-02T02:34:19.968Z,100757.94
2023-05-02T02:36:51.584Z,100767.34
2023-05-02T02:39:23.072Z,100771.50
2023-05-02T02:41:54.528Z,100775.44
2023-05-02T02:44:25.981Z,100775.31
2023-05-02T02:46:57.795Z,100784.22
2023-05-02T02:49:29.314Z,100790.25
2023-05-02T02:52:01.121Z,100775.47
2023-05-02T02:54:32.563Z,100789.50
2023-05-02T02:57:04.393Z,100787.84
2023-05-02T02:59:35.887Z,100792.25
2023-05-02T03:02:10.909Z,100797.81
2023-05-02T03:04:42.419Z,100821.13
2023-05-02T03:07:14.277Z,100822.66
2023-05-02T03:09:45.750Z,100821.47
2023-05-02T03:12:17.457Z,100827.84
2023-05-02T03:14:48.973Z,100837.81
2023-05-02T03:17:20.605Z,100849.50
2023-05-02T03:19:52.083Z,100847.16
2023-05-02T03:22:23.991Z,100856.41
2023-05-02T03:24:55.440Z,100847.81
2023-05-02T03:27:27.344Z,100847.88
2023-05-02T03:29:59.071Z,100855.50
2023-05-02T03:32:31.109Z,100857.19
2023-05-02T03:35:02.593Z,100862.13
2023-05-02T03:37:34.332Z,100858.88
2023-05-02T03:40:05.777Z,100854.34
2023-05-02T03:42:37.254Z,100861.38
2023-05-02T03:45:15.225Z,100859.31
2023-05-02T03:47:47.053Z,100860.34
2023-05-02T03:50:18.572Z,100864.88
2023-05-02T03:52:50.073Z,100868.13
2023-05-02T03:55:21.557Z,100878.44
2023-05-02T03:57:53.034Z,100882.28
2023-05-02T04:00:24.511Z,100884.38
2023-05-02T04:02:56.036Z,100887.63
2023-05-02T04:05:27.536Z,100896.44
2023-05-02T04:07:59.224Z,100904.88
2023-05-02T04:10:30.672Z,100902.16
2023-05-02T04:13:02.492Z,100904.38
2023-05-02T04:15:33.987Z,100901.72
2023-05-02T04:18:05.585Z,100906.16
2023-05-02T04:20:37.105Z,100913.00
2023-05-02T04:23:08.614Z,100914.34
2023-05-02T04:25:40.075Z,100912.53
2023-05-02T04:28:11.580Z,100922.91
2023-05-02T04:30:43.100Z,100925.50
2023-05-02T04:33:14.646Z,100921.72
2023-05-02T04:35:46.445Z,100925.94
2023-05-02T04:38:17.914Z,100930.19
2023-05-02T04:40:49.399Z,100941.03
2023-05-02T04:43:22.383Z,100939.47
2023-05-02T04:45:55.363Z,100951.41
2023-05-02T04:48:26.878Z,100946.97
2023-05-02T04:50:58.714Z,100948.56
2023-05-02T04:53:30.201Z,100956.47
2023-05-02T04:56:02.039Z,100964.88
2023-05-02T04:58:33.518Z,100968.22
2023-05-02T05:01:05.388Z,100980.81
2023-05-02T05:03:37.106Z,100985.50
2023-05-02T05:06:08.989Z,100989.94
2023-05-02T05:08:40.630Z,100987.50
2023-05-02T05:11:12.479Z,100988.34
2023-05-02T05:13:43.974Z,100990.91
2023-05-02T05:16:15.869Z,100995.66
2023-05-02T05:18:47.353Z,101004.75
2023-05-02T05:21:18.824Z,101007.56
2023-05-02T05:23:50.299Z,101009.84
2023-05-02T05:26:21.940Z,101016.38
2023-05-02T05:28:53.412Z,101013.25
2023-05-02T05:31:24.977Z,101030.38
2023-05-02T05:33:56.514Z,101036.09
2023-05-02T05:36:28.310Z,101031.91
2023-05-02T05:38:59.825Z,101040.47
2023-05-02T05:41:31.644Z,101040.81
2023-05-02T05:44:03.105Z,101050.59
2023-05-02T05:46:34.980Z,101048.00
2023-05-02T05:49:06.460Z,101047.41
2023-05-02T05:51:38.184Z,101050.94
2023-05-02T05:54:09.660Z,101048.94
2023-05-02T05:56:41.232Z,101055.03
2023-05-02T05:59:12.705Z,101057.81
2023-05-02T06:01:44.566Z,101063.44
2023-05-02T06:04:16.152Z,101070.19
2023-05-02T06:06:48.113Z,101066.91
2023-05-02T06:09:19.629Z,101078.91
2023-05-02T06:11:51.101Z,101085.75
2023-05-02T06:14:22.576Z,101087.97
2023-05-02T06:16:54.084Z,101091.97
2023-05-02T06:19:25.541Z,101103.91
2023-05-02T06:21:57.084Z,101106.19
2023-05-02T06:24:28.555Z,101110.03
2023-05-02T06:27:00.310Z,101110.38
2023-05-02T06:29:31.852Z,101106.88
2023-05-02T06:32:03.774Z,101116.13
2023-05-02T06:34:35.277Z,101118.31
2023-05-02T06:37:07.077Z,101115.19
2023-05-02T06:39:38.557Z,101118.84
2023-05-02T06:42:10.409Z,101113.25
2023-05-02T06:44:41.879Z,101124.44
2023-05-02T06:47:13.572Z,101127.22
2023-05-02T06:49:45.097Z,101133.84
2023-05-02T06:52:16.748Z,101149.16
2023-05-02T06:54:48.247Z,101156.78
2023-05-02T06:57:19.716Z,101159.00
2023-05-02T06:59:51.187Z,101168.56
2023-05-02T07:02:22.760Z,101173.56
2023-05-02T07:04:54.319Z,101175.22
2023-05-02T07:07:25.848Z,101185.16
2023-05-02T07:09:57.353Z,101189.94
2023-05-02T07:12:28.840Z,101186.81
2023-05-02T07:15:00.636Z,101192.72
2023-05-02T07:17:32.159Z,101203.69
2023-05-02T07:20:04.164Z,101198.53
2023-05-02T07:22:35.932Z,101203.31
2023-05-02T07:25:07.424Z,101208.97
2023-05-02T07:27:38.898Z,101212.00
2023-05-02T07:30:10.828Z,101216.66
2023-05-02T07:32:42.387Z,101216.28
2023-05-02T07:35:13.907Z,101216.34
2023-05-02T07:37:45.372Z,101218.63
2023-05-02T07:40:17.174Z,101224.88
2023-05-02T07:42:48.656Z,101220.59
2023-05-02T07:45:20.370Z,101233.84
2023-05-02T07:47:51.896Z,101235.38
2023-05-02T07:50:23.979Z,101238.53
2023-05-02T07:52:55.520Z,101237.16
2023-05-02T07:55:27.006Z,101238.00
2023-05-02T07:57:58.489Z,101239.59
2023-05-02T08:00:30.144Z,101241.63
2023-05-02T08:03:01.701Z,101240.25
2023-05-02T08:05:33.636Z,101250.97
2023-05-02T08:08:05.101Z,101254.91
2023-05-02T08:10:36.942Z,101254.66
2023-05-02T08:13:08.407Z,101250.84
2023-05-02T08:15:40.154Z,101255.16
2023-05-02T08:18:11.708Z,101261.56
2023-05-02T08:20:43.680Z,101259.66
2023-05-02T08:23:15.139Z,101265.03
2023-05-02T08:25:46.974Z,101266.84
2023-05-02T08:28:18.451Z,101274.75
2023-05-02T08:30:49.928Z,101278.41
2023-05-02T08:33:21.419Z,101272.94
2023-05-02T08:35:52.905Z,101280.69
2023-05-02T08:38:24.406Z,101277.59
2023-05-02T08:40:55.868Z,101270.97
2023-05-02T08:43:27.548Z,101279.13
2023-05-02T08:45:59.020Z,101279.56
2023-05-02T08:48:30.865Z,101287.50
2023-05-02T08:51:02.360Z,101293.59
2023-05-02T08:53:34.024Z,101294.66
2023-05-02T08:56:05.489Z,101292.22
2023-05-02T08:58:37.330Z,101299.03
2023-05-02T09:01:08.854Z,101300.94
2023-05-02T09:03:40.915Z,101302.59
2023-05-02T09:06:12.406Z,101303.06
2023-05-02T09:08:44.339Z,101313.53
2023-05-02T09:11:15.804Z,101319.75
2023-05-02T09:13:47.684Z,101330.94
2023-05-02T09:16:19.264Z,101339.38
2023-05-02T09:18:50.784Z,101338.88
2023-05-02T09:21:22.253Z,101333.38
2023-05-02T09:23:53.747Z,101346.88
2023-05-02T09:26:25.222Z,101356.28
2023-05-02T09:28:56.687Z,101339.38
2023-05-02T09:31:49.602Z,101348.22
2023-05-02T09:34:20.005Z,101347.81
2023-05-02T09:36:51.481Z,101356.06
2023-05-02T09:39:25.512Z,101349.81
2023-05-02T09:41:57.699Z,101351.28
2023-05-02T09:44:29.520Z,101358.63
2023-05-02T09:47:00.992Z,101351.13
2023-05-02T09:49:32.864Z,101355.75
2023-05-02T09:52:04.337Z,101360.53
2023-05-02T09:54:36.164Z,101360.50
2023-05-02T09:57:07.713Z,101369.19
2023-05-02T09:59:39.592Z,101372.28
2023-05-02T10:02:11.113Z,101381.97
2023-05-02T10:04:43.314Z,101379.56
2023-05-02T10:07:14.825Z,101386.59
2023-05-02T10:09:46.311Z,101386.25
2023-05-02T10:12:17.785Z,101391.50
2023-05-02T10:14:49.274Z,101397.47
2023-05-02T10:17:20.716Z,101388.41
2023-05-02T10:19:52.216Z,101393.25
2023-05-02T10:22:23.679Z,101390.41
2023-05-02T10:24:55.176Z,101394.19
2023-05-02T10:27:26.663Z,101401.13
2023-05-02T10:29:58.143Z,101398.78
2023-05-02T10:32:29.845Z,101398.94
2023-05-02T10:35:02.030Z,101412.06
2023-05-02T10:37:33.665Z,101429.69
2023-05-02T10:40:05.251Z,101432.25
2023-05-02T10:42:36.728Z,101429.69
2023-05-02T10:45:08.212Z,101441.72
2023-05-02T10:47:39.768Z,101440.31
2023-05-02T10:50:11.294Z,101453.75
2023-05-02T10:52:42.765Z,101456.66
2023-05-02T10:55:14.270Z,101457.53
2023-05-02T10:57:45.793Z,101465.56
2023-05-02T11:00:17.628Z,101463.19
2023-05-02T11:02:49.178Z,101465.53
2023-05-02T11:05:21.175Z,101472.88
2023-05-02T11:07:52.654Z,101490.13
2023-05-02T11:10:24.118Z,101484.38
2023-05-02T11:12:55.594Z,101484.94
2023-05-02T11:15:27.095Z,101495.66
2023-05-02T11:17:58.618Z,101508.09
2023-05-02T11:23:01.948Z,101510.81
2023-05-02T11:25:33.416Z,101521.63
2023-05-02T11:28:05.314Z,101514.66
2023-05-02T11:30:36.785Z,101514.00
2023-05-02T11:33:08.653Z,101522.59
2023-05-02T11:35:40.149Z,101529.88
2023-05-02T11:38:11.642Z,101544.34
2023-05-02T11:40:43.110Z,101528.34
2023-05-02T11:43:14.847Z,101547.41
2023-05-02T11:45:46.389Z,101547.19
2023-05-02T11:48:17.910Z,101536.56
2023-05-02T11:50:50.357Z,101541.47
2023-05-02T11:53:22.688Z,101541.81
2023-05-02T11:55:54.277Z,101552.44
2023-05-02T11:58:26.088Z,101552.69
2023-05-02T12:00:57.563Z,101553.84
2023-05-02T12:03:29.580Z,101555.31
2023-05-02T12:06:01.324Z,101563.59
2023-05-02T12:08:32.869Z,101570.94
2023-05-02T12:11:04.357Z,101567.06
2023-05-02T12:13:36.151Z,101568.78
2023-05-02T12:16:07.621Z,101567.84
2023-05-02T12:18:39.417Z,101553.34
2023-05-02T12:21:10.892Z,101582.59
2023-05-02T12:23:42.650Z,101573.28
2023-05-02T12:26:14.116Z,101574.94
2023-05-02T12:28:46.038Z,101576.31
2023-05-02T12:31:17.532Z,101587.97
2023-05-02T12:33:49.497Z,101588.91
2023-05-02T12:36:20.964Z,101579.22
2023-05-02T12:38:52.459Z,101584.44
2023-05-02T12:41:24.403Z,101589.06
2023-05-02T12:43:55.985Z,101597.03
2023-05-02T12:46:27.512Z,101586.88
2023-05-02T12:48:59.483Z,101590.59
2023-05-02T12:51:30.977Z,101589.22
2023-05-02T12:54:02.841Z,101597.50
2023-05-02T12:56:34.382Z,101598.66
2023-05-02T12:59:06.517Z,101586.81
2023-05-02T13:01:38.259Z,101602.28
2023-05-02T13:04:10.225Z,101606.00
2023-05-02T13:06:41.846Z,101604.78
2023-05-02T13:09:13.743Z,101602.88
2023-05-02T13:11:45.255Z,101612.53
2023-05-02T13:14:17.176Z,101608.84
2023-05-02T13:16:48.721Z,101614.50
2023-05-02T13:19:20.571Z,101613.84
2023-05-02T13:21:52.060Z,101627.81
2023-05-02T13:24:24.001Z,101622.69
2023-05-02T13:26:55.481Z,101617.44
2023-05-02T13:29:27.147Z,101630.03
2023-05-02T13:31:58.632Z,101627.53
2023-05-02T13:34:30.476Z,101623.41
2023-05-02T13:37:01.955Z,101626.09
2023-05-02T13:39:33.788Z,101635.56
2023-05-02T13:42:06.304Z,101628.31
2023-05-02T13:44:38.124Z,101637.00
2023-05-02T13:47:09.623Z,101640.16
2023-05-02T13:49:41.412Z,101637.09
2023-05-02T13:52:12.878Z,101639.38
2023-05-02T13:54:44.737Z,101647.44
2023-05-02T13:57:16.233Z,101655.19
2023-05-02T13:59:48.110Z,101662.94
2023-05-02T14:02:19.628Z,101639.91
2023-05-02T14:04:51.192Z,101656.31
2023-05-02T14:07:22.709Z,101657.19
2023-05-02T14:09:54.184Z,101647.47
2023-05-02T14:12:25.654Z,101657.38
2023-05-02T14:14:57.144Z,101666.56
2023-05-02T14:17:28.633Z,101660.50
2023-05-02T14:20:00.783Z,101660.13
2023-05-02T14:22:32.471Z,101666.81
2023-05-02T14:25:03.969Z,101679.78
2023-05-02T14:27:35.498Z,101682.97
2023-05-02T14:30:07.010Z,101683.16
2023-05-02T14:32:38.538Z,101676.97
2023-05-02T14:35:10.042Z,101685.16
2023-05-02T14:37:41.501Z,101692.53
2023-05-02T14:40:12.983Z,101688.44
2023-05-02T14:42:44.475Z,101696.72
2023-05-02T14:45:15.946Z,101694.84
2023-05-02T14:47:47.757Z,101698.50
2023-05-02T14:50:19.273Z,101701.72
2023-05-02T14:52:50.759Z,101705.13
2023-05-02T14:55:22.222Z,101710.38
2023-05-02T14:57:53.817Z,101719.50
2023-05-02T15:00:26.107Z,101723.38
2023-05-02T15:02:57.827Z,101721.94
2023-05-02T15:05:29.461Z,101717.88
2023-05-02T15:08:01.114Z,101734.25
2023-05-02T15:10:32.589Z,101721.88
2023-05-02T15:13:04.346Z,101726.41
2023-05-02T15:15:35.808Z,101730.00
2023-05-02T15:18:07.397Z,101734.94
2023-05-02T15:20:38.928Z,101736.19
2023-05-02T15:23:10.755Z,101736.84
2023-05-02T15:25:42.261Z,101740.22
2023-05-02T15:28:14.208Z,101733.97
2023-05-02T15:30:45.674Z,101736.84
2023-05-02T15:33:17.482Z,101735.78
2023-05-02T15:35:48.986Z,101749.84
2023-05-02T15:38:20.478Z,101755.50
2023-05-02T15:40:51.946Z,101768.06
2023-05-02T15:43:23.725Z,101759.34
2023-05-02T15:45:55.243Z,101758.66
2023-05-02T15:48:27.083Z,101752.66
2023-05-02T15:50:58.552Z,101744.25
2023-05-02T15:53:30.400Z,101751.03
2023-05-02T15:56:01.907Z,101751.50
2023-05-02T15:58:33.970Z,101748.31
2023-05-02T16:01:05.441Z,101753.19
2023-05-02T16:03:37.421Z,101756.09
2023-05-02T16:06:08.933Z,101758.66
2023-05-02T16:08:40.712Z,101756.50
2023-05-02T16:11:12.184Z,101760.81
2023-05-02T16:13:43.838Z,101766.41
2023-05-02T16:16:15.365Z,101760.66
2023-05-02T16:18:47.140Z,101756.56
2023-05-02T16:21:18.640Z,101762.72
2023-05-02T16:23:50.132Z,101763.19
2023-05-02T16:26:21.634Z,101766.88
2023-05-02T16:28:53.102Z,101763.41
2023-05-02T16:31:24.604Z,101765.66
2023-05-02T16:33:56.089Z,101762.78
2023-05-02T16:36:27.552Z,101764.84
2023-05-02T16:38:59.430Z,101767.34
2023-05-02T16:41:30.954Z,101762.81
2023-05-02T16:44:02.805Z,101757.88
2023-05-02T16:46:34.289Z,101765.66
2023-05-02T16:49:05.997Z,101763.19
2023-05-02T16:51:37.576Z,101757.03
2023-05-02T16:54:09.601Z,101763.00
2023-05-02T16:56:42.642Z,101760.53
2023-05-02T16:59:14.832Z,101766.91
2023-05-02T17:01:46.351Z,101767.34
2023-05-02T17:04:18.124Z,101765.03
2023-05-02T17:06:49.774Z,101772.25
2023-05-02T17:09:21.705Z,101768.78
2023-05-02T17:11:53.189Z,101768.75
2023-05-02T17:14:25.087Z,101779.06
2023-05-02T17:16:56.628Z,101770.38
2023-05-02T17:19:28.332Z,101774.31
2023-05-02T17:21:59.801Z,101771.66
2023-05-02T17:24:31.689Z,101781.69
2023-05-02T17:27:03.193Z,101778.59
2023-05-02T17:29:34.847Z,101779.22
2023-05-02T17:32:06.349Z,101787.03
2023-05-02T17:34:38.168Z,101784.78
2023-05-02T17:37:09.626Z,101796.72
2023-05-02T17:39:41.470Z,101802.06
2023-05-02T17:42:12.943Z,101796.91
2023-05-02T17:44:44.838Z,101803.50
2023-05-02T17:47:16.351Z,101800.00
2023-05-02T17:49:48.138Z,101803.91
2023-05-02T17:52:19.617Z,101804.94
2023-05-02T17:54:51.110Z,101805.53
2023-05-02T17:57:22.625Z,101806.78
2023-05-02T17:59:54.140Z,101798.53
2023-05-02T18:02:25.641Z,101810.88
2023-05-02T18:04:57.224Z,101810.03
2023-05-02T18:07:28.718Z,101812.88
2023-05-02T18:10:00.761Z,101818.81
2023-05-02T18:12:32.383Z,101817.97
2023-05-02T18:15:04.634Z,101818.78
2023-05-02T18:17:36.405Z,101824.31
2023-05-02T18:20:08.217Z,101822.66
2023-05-02T18:22:39.694Z,101822.22
2023-05-02T18:25:11.602Z,101831.47
2023-05-02T18:27:43.122Z,101834.09
2023-05-02T18:30:14.613Z,101836.31
2023-05-02T18:32:46.641Z,101830.59
2023-05-02T18:35:18.347Z,101837.75
2023-05-02T18:37:49.864Z,101831.59
2023-05-02T18:40:21.338Z,101841.44
2023-05-02T18:42:52.835Z,101700.75
2023-05-02T18:45:24.344Z,101832.97
2023-05-02T18:47:55.874Z,101836.44
2023-05-02T18:50:27.403Z,101836.84
2023-05-02T18:52:59.211Z,101840.31
2023-05-02T18:55:30.702Z,101846.06
2023-05-02T18:58:02.435Z,101842.56
2023-05-02T19:00:36.953Z,101852.66
2023-05-02T19:03:09.225Z,101849.38
2023-05-02T19:05:40.729Z,101848.38
2023-05-02T19:08:12.260Z,101860.66
2023-05-02T19:10:43.728Z,101851.13
2023-05-02T19:13:15.243Z,101854.81
2023-05-02T19:15:46.774Z,101863.91
2023-05-02T19:18:18.344Z,101862.50
2023-05-02T19:20:49.827Z,101866.19
2023-05-02T19:23:21.605Z,101870.50
2023-05-02T19:25:53.111Z,101875.03
2023-05-02T19:28:24.621Z,101884.88
2023-05-02T19:30:56.098Z,101884.88
2023-05-02T19:33:27.929Z,101881.59
2023-05-02T19:35:59.390Z,101890.16
2023-05-02T19:38:30.919Z,101890.22
2023-05-02T19:41:02.444Z,101633.34
2023-05-02T19:43:33.941Z,101894.31
2023-05-02T19:46:05.466Z,101900.81
2023-05-02T19:48:37.395Z,101899.75
2023-05-02T19:51:08.866Z,101902.00
2023-05-02T19:53:40.803Z,101901.09
2023-05-02T19:56:12.287Z,101907.44
2023-05-02T19:58:44.136Z,101915.81
2023-05-02T20:01:15.633Z,101921.13
2023-05-02T20:03:47.630Z,101922.94
2023-05-02T20:06:19.355Z,101922.88
2023-05-02T20:08:50.936Z,101922.81
2023-05-02T20:11:22.423Z,101928.16
2023-05-02T20:13:53.954Z,101923.56
2023-05-02T20:16:25.472Z,101923.72
2023-05-02T20:18:57.026Z,101931.47
2023-05-02T20:21:28.500Z,101940.09
2023-05-02T20:24:00.338Z,101943.59
2023-05-02T20:26:31.846Z,101943.53
2023-05-02T20:29:03.571Z,101944.88
2023-05-02T20:31:35.512Z,101944.00
2023-05-02T20:34:07.113Z,101958.88
2023-05-02T20:36:38.975Z,101945.91
2023-05-02T20:39:12.188Z,101955.28
2023-05-02T20:41:44.094Z,101958.53
2023-05-02T20:44:15.564Z,101962.75
2023-05-02T20:46:47.386Z,101959.97
2023-05-02T20:49:18.845Z,101961.50
2023-05-02T20:51:50.314Z,101967.66
2023-05-02T20:54:21.796Z,101970.38
2023-05-02T20:56:53.381Z,101971.03
2023-05-02T20:59:24.869Z,101967.53
2023-05-02T21:01:56.528Z,101972.88
2023-05-02T21:04:28.070Z,101977.28
2023-05-02T21:06:59.839Z,101977.19
2023-05-02T21:09:31.312Z,101975.91
2023-05-02T21:12:02.799Z,101976.84
2023-05-02T21:14:34.283Z,101983.16
2023-05-02T21:17:06.115Z,101981.88
2023-05-02T21:19:37.696Z,101985.75
2023-05-02T21:22:09.500Z,101987.94
2023-05-02T21:24:40.989Z,101988.78
2023-05-02T21:27:12.797Z,101985.03
2023-05-02T21:29:44.268Z,101985.03
2023-05-02T21:32:16.050Z,101983.38
2023-05-02T21:34:47.518Z,101986.22
2023-05-02T21:37:19.205Z,101986.03
2023-05-02T21:39:50.675Z,101990.72
2023-05-02T21:42:22.522Z,101993.38
2023-05-02T21:44:53.987Z,101983.72
2023-05-02T21:47:25.873Z,101987.75
2023-05-02T21:49:57.406Z,101993.75
2023-05-02T21:52:29.199Z,101852.56
2023-05-02T21:55:00.709Z,101988.84
2023-05-02T21:57:32.178Z,101987.56
2023-05-02T22:00:03.898Z,101986.91
2023-05-02T22:02:36.258Z,101991.59
2023-05-02T22:05:07.809Z,101990.31
2023-05-02T22:07:39.612Z,101989.38
2023-05-02T22:10:11.511Z,101994.06
2023-05-02T22:12:42.982Z,101994.25
2023-05-02T22:15:14.483Z,101993.41
2023-05-02T22:17:45.987Z,102006.06
2023-05-02T22:20:17.936Z,101995.28
2023-05-02T22:22:49.400Z,102006.13
2023-05-02T22:25:20.881Z,102005.25
2023-05-02T22:27:52.355Z,101741.50
2023-05-02T22:30:24.351Z,102018.78
2023-05-02T22:32:55.861Z,102016.66
2023-05-02T22:35:27.828Z,102020.59
2023-05-02T22:37:59.350Z,102021.78
2023-05-02T22:40:31.152Z,102027.22
2023-05-02T22:43:02.627Z,102029.25
2023-05-02T22:45:34.469Z,102027.84
2023-05-02T22:48:06.049Z,102029.50
2023-05-02T22:50:37.884Z,102031.78
2023-05-02T22:53:09.346Z,102032.44
2023-05-02T22:55:41.251Z,102039.06
2023-05-02T22:58:12.729Z,102034.28
2023-05-02T23:00:44.656Z,102039.78
2023-05-02T23:03:16.203Z,102037.47
2023-05-02T23:05:48.104Z,102042.97
2023-05-02T23:08:19.576Z,102050.94
2023-05-02T23:10:51.090Z,102046.63
2023-05-02T23:13:22.540Z,102047.09
2023-05-02T23:15:54.073Z,102053.97
2023-05-02T23:18:25.527Z,102047.47
2023-05-02T23:20:57.015Z,102050.13
2023-05-02T23:23:28.494Z,102052.44
2023-05-02T23:26:00.205Z,102050.78
2023-05-02T23:28:31.659Z,102052.78
2023-05-02T23:31:03.480Z,102056.28
2023-05-02T23:33:35.053Z,102055.09
2023-05-02T23:36:06.920Z,102055.63
2023-05-02T23:38:38.401Z,102052.78
2023-05-02T23:41:10.066Z,102048.84
2023-05-02T23:43:41.510Z,102061.47
2023-05-02T23:46:13.311Z,102061.38
2023-05-02T23:48:44.785Z,102055.69
2023-05-02T23:51:16.547Z,102057.88
2023-05-02T23:53:48.014Z,102050.53
2023-05-02T23:56:19.787Z,102051.19
2023-05-02T23:58:51.240Z,102055.03
